Time;durP1;ratioP1;P1;durP2;ratioP2;P2;SDS_P1;SDS_P2;PMS_P1;PMS_P2;Temp;Humidity;BMP_temperature;BMP_pressure;BME280_temperature;BME280_humidity;BME280_pressure;Samples;Min_cycle;Max_cycle;Signal;HPM_P1;HPM_P2
2022/11/14 00:00:51;;;;;;;54.42;34.78;;;7.10;99.90;;;;;;4901845;28;89207;-32
2022/11/14 00:03:17;;;;;;;44.25;28.88;;;7.10;99.90;;;;;;4901931;28;89630;-32
2022/11/14 00:05:44;;;;;;;36.45;25.83;;;7.20;99.90;;;;;;4901223;28;89914;-33
2022/11/14 00:08:18;;;;;;;53.35;33.72;;;7.10;99.90;;;;;;4902568;28;90156;-31
2022/11/14 00:10:48;;;;;;;52.25;38.60;;;7.10;99.90;;;;;;4900482;28;90329;-31
2022/11/14 00:13:15;;;;;;;49.83;36.72;;;7.10;99.90;;;;;;4901420;28;89654;-31
2022/11/14 00:15:41;;;;;;;54.40;40.22;;;7.10;99.90;;;;;;4900402;28;89747;-34
2022/11/14 00:18:07;;;;;;;55.10;39.22;;;7.10;99.90;;;;;;4901948;28;90371;-30
2022/11/14 00:20:33;;;;;;;53.90;39.63;;;7.10;99.90;;;;;;4900902;28;90156;-32
2022/11/14 00:22:59;;;;;;;42.45;34.05;;;7.10;99.90;;;;;;4901901;28;88991;-30
2022/11/14 00:25:24;;;;;;;46.90;34.90;;;7.10;99.90;;;;;;4901401;28;88778;-31
2022/11/14 00:27:50;;;;;;;63.85;43.58;;;7.10;99.90;;;;;;4901484;28;90066;-29
2022/11/14 00:30:15;;;;;;;61.03;43.53;;;7.10;99.90;;;;;;4901749;28;90046;-31
2022/11/14 00:32:41;;;;;;;55.83;40.58;;;7.10;99.90;;;;;;4901233;28;89829;-30
2022/11/14 00:35:10;;;;;;;47.00;29.95;;;7.10;99.90;;;;;;4901288;28;89860;-31
2022/11/14 00:37:36;;;;;;;58.20;43.17;;;7.10;99.90;;;;;;4901365;28;90441;-32
2022/11/14 00:40:02;;;;;;;53.28;36.05;;;7.10;99.90;;;;;;4900231;28;90261;-30
2022/11/14 00:42:27;;;;;;;61.53;42.30;;;7.10;99.90;;;;;;4901179;28;90691;-31
2022/11/14 00:44:53;;;;;;;60.15;43.60;;;7.10;99.90;;;;;;4901405;28;88713;-31
2022/11/14 00:47:19;;;;;;;53.88;39.25;;;7.00;99.90;;;;;;4900752;28;90488;-31
2022/11/14 00:49:44;;;;;;;56.70;40.40;;;7.00;99.90;;;;;;4901244;28;89810;-31
2022/11/14 00:52:10;;;;;;;54.05;41.65;;;7.00;99.90;;;;;;4901396;28;89725;-31
2022/11/14 00:54:35;;;;;;;49.22;38.55;;;7.00;99.90;;;;;;4901540;28;88015;-31
2022/11/14 00:57:01;;;;;;;55.08;39.60;;;7.10;99.90;;;;;;4900466;28;90234;-32
2022/11/14 00:59:26;;;;;;;58.28;41.72;;;7.00;99.90;;;;;;4901073;28;89962;-30
2022/11/14 01:01:52;;;;;;;63.92;42.95;;;7.00;99.90;;;;;;4901057;28;90613;-30
2022/11/14 01:04:18;;;;;;;65.93;48.92;;;7.00;99.90;;;;;;4901212;28;89789;-32
2022/11/14 01:06:43;;;;;;;63.88;43.63;;;7.00;99.90;;;;;;4900550;28;92339;-31
2022/11/14 01:09:09;;;;;;;63.00;44.55;;;6.90;99.90;;;;;;4900128;28;90064;-30
2022/11/14 01:11:34;;;;;;;63.05;41.58;;;6.90;99.90;;;;;;4900666;28;89675;-32
2022/11/14 01:14:00;;;;;;;61.42;45.88;;;6.90;99.90;;;;;;4900374;28;88254;-32
2022/11/14 01:16:26;;;;;;;63.22;47.28;;;6.80;99.90;;;;;;4900842;28;90536;-30
2022/11/14 01:18:51;;;;;;;59.63;41.15;;;6.70;99.90;;;;;;4900741;28;90138;-31
2022/11/14 01:21:17;;;;;;;69.55;47.97;;;6.70;99.90;;;;;;4901011;28;90814;-31
2022/11/14 01:23:42;;;;;;;58.13;44.17;;;6.70;99.90;;;;;;4900693;28;88150;-30
2022/11/14 01:26:11;;;;;;;67.18;50.28;;;6.70;99.90;;;;;;4900292;28;90266;-32
2022/11/14 01:28:38;;;;;;;64.80;50.45;;;6.70;99.90;;;;;;4899703;28;90358;-33
2022/11/14 01:31:19;;;;;;;74.47;51.30;;;6.60;99.90;;;;;;4901091;28;90571;-33
2022/11/14 01:33:51;;;;;;;66.38;47.90;;;6.60;99.90;;;;;;4900606;28;89382;-33
2022/11/14 01:36:17;;;;;;;70.18;49.90;;;6.60;99.90;;;;;;4899779;28;90305;-31
2022/11/14 01:38:43;;;;;;;63.33;43.75;;;6.60;99.90;;;;;;4900573;28;89336;-31
2022/11/14 01:41:12;;;;;;;72.07;47.38;;;6.70;99.90;;;;;;4900849;28;89977;-30
2022/11/14 01:43:39;;;;;;;78.95;51.42;;;6.70;99.90;;;;;;4899878;28;88945;-31
2022/11/14 01:46:28;;;;;;;71.88;48.58;;;6.60;99.90;;;;;;4900176;28;90441;-31
2022/11/14 01:48:59;;;;;;;72.22;51.22;;;6.60;99.90;;;;;;4900181;28;89459;-31
2022/11/14 01:51:34;;;;;;;70.28;48.80;;;6.60;99.90;;;;;;4899819;28;90144;-30
2022/11/14 01:54:14;;;;;;;82.00;52.60;;;6.70;99.90;;;;;;4900447;28;90286;-32
2022/11/14 01:56:45;;;;;;;44.17;32.50;;;6.60;99.90;;;;;;4900098;28;90224;-31
2022/11/14 01:59:16;;;;;;;76.03;52.80;;;6.70;99.90;;;;;;4899650;28;89769;-31
2022/11/14 02:01:46;;;;;;;76.28;53.08;;;6.60;99.90;;;;;;4899797;28;89551;-32
2022/11/14 02:04:18;;;;;;;84.65;56.47;;;6.60;99.90;;;;;;4900287;28;88732;-32
2022/11/14 02:06:44;;;;;;;53.53;36.50;;;6.60;99.90;;;;;;4900031;28;90087;-30
2022/11/14 02:09:10;;;;;;;78.72;55.63;;;6.70;99.90;;;;;;4899093;28;89771;-33
2022/11/14 02:11:40;;;;;;;65.53;43.53;;;6.70;99.90;;;;;;4900264;28;90438;-32
2022/11/14 02:14:06;;;;;;;75.22;55.42;;;6.70;99.90;;;;;;4900446;28;87607;-30
2022/11/14 02:16:32;;;;;;;79.32;56.70;;;6.70;99.90;;;;;;4900466;28;90213;-31
2022/11/14 02:18:58;;;;;;;74.68;50.15;;;6.60;99.90;;;;;;4902906;28;90008;-30
2022/11/14 02:21:24;;;;;;;65.15;45.22;;;6.70;99.90;;;;;;4903079;28;89373;-33
2022/11/14 02:23:49;;;;;;;65.43;42.83;;;6.80;99.90;;;;;;4903549;28;88860;-33
2022/11/14 02:26:19;;;;;;;66.82;51.08;;;6.80;99.90;;;;;;4903313;28;89534;-30
2022/11/14 02:28:45;;;;;;;79.28;54.88;;;6.80;99.90;;;;;;4903332;28;89556;-29
2022/11/14 02:31:11;;;;;;;77.90;52.53;;;6.80;99.90;;;;;;4902953;28;90432;-31
2022/11/14 02:33:37;;;;;;;59.38;38.63;;;6.80;99.90;;;;;;4902886;28;88417;-31
2022/11/14 02:36:03;;;;;;;58.72;38.53;;;6.90;99.90;;;;;;4903553;28;90568;-32
2022/11/14 02:38:28;;;;;;;80.70;59.00;;;6.90;99.90;;;;;;4902235;28;89793;-31
2022/11/14 02:40:54;;;;;;;84.70;56.15;;;6.90;99.90;;;;;;4903625;28;89342;-31
2022/11/14 02:43:20;;;;;;;66.45;46.15;;;6.80;99.90;;;;;;4902892;28;89211;-31
2022/11/14 02:45:45;;;;;;;70.18;48.38;;;6.80;99.90;;;;;;4902651;28;90165;-29
2022/11/14 02:48:11;;;;;;;79.97;49.53;;;6.80;99.90;;;;;;4902996;28;89712;-29
2022/11/14 02:50:37;;;;;;;77.18;56.30;;;6.80;99.90;;;;;;4902342;28;88769;-31
2022/11/14 02:53:02;;;;;;;68.38;43.17;;;6.70;99.90;;;;;;4903478;28;89095;-31
2022/11/14 02:55:28;;;;;;;73.38;52.85;;;6.80;99.90;;;;;;4902242;28;90318;-31
2022/11/14 02:57:53;;;;;;;77.88;49.05;;;6.90;99.90;;;;;;4903266;28;89720;-30
2022/11/14 03:00:19;;;;;;;83.15;57.00;;;6.90;99.90;;;;;;4902732;28;89484;-31
2022/11/14 03:02:45;;;;;;;74.25;48.25;;;6.90;99.90;;;;;;4902744;28;89375;-31
2022/11/14 03:05:10;;;;;;;80.97;55.80;;;6.80;99.90;;;;;;4903294;28;89998;-31
2022/11/14 03:07:36;;;;;;;79.93;58.63;;;6.90;99.90;;;;;;4901739;28;90696;-32
2022/11/14 03:10:01;;;;;;;78.88;53.03;;;6.90;99.90;;;;;;4901640;28;90734;-30
2022/11/14 03:12:27;;;;;;;62.88;52.95;;;6.80;99.90;;;;;;4902036;28;90176;-31
2022/11/14 03:14:53;;;;;;;87.20;51.47;;;6.80;99.90;;;;;;4903016;28;90291;-31
2022/11/14 03:17:18;;;;;;;70.25;55.58;;;6.80;99.90;;;;;;4902790;28;89714;-29
2022/11/14 03:19:44;;;;;;;75.80;53.05;;;6.80;99.90;;;;;;4902570;28;89544;-32
2022/11/14 03:22:09;;;;;;;75.63;57.10;;;6.80;99.90;;;;;;4902493;28;89026;-31
2022/11/14 03:24:35;;;;;;;74.68;57.45;;;6.80;99.90;;;;;;4900117;28;90436;-31
2022/11/14 03:27:00;;;;;;;69.18;46.90;;;6.90;99.90;;;;;;4902035;28;89368;-31
2022/11/14 03:29:26;;;;;;;72.05;52.20;;;6.90;99.90;;;;;;4901892;28;89499;-31
2022/11/14 03:31:52;;;;;;;68.80;50.67;;;7.00;99.90;;;;;;4902360;28;89937;-30
2022/11/14 03:34:17;;;;;;;76.93;54.72;;;7.00;99.90;;;;;;4902175;28;90164;-30
2022/11/14 03:36:43;;;;;;;75.47;56.97;;;6.90;99.90;;;;;;4901889;28;89655;-31
2022/11/14 03:39:08;;;;;;;74.25;53.70;;;6.90;99.90;;;;;;4902009;28;89948;-30
2022/11/14 03:41:34;;;;;;;73.97;51.88;;;6.90;99.90;;;;;;4901325;28;88287;-31
2022/11/14 03:43:59;;;;;;;66.65;49.92;;;6.90;99.90;;;;;;4902733;28;90410;-32
2022/11/14 03:46:25;;;;;;;63.95;43.70;;;7.00;99.90;;;;;;4900906;28;89546;-31
2022/11/14 03:48:51;;;;;;;73.63;49.95;;;6.90;99.90;;;;;;4902138;28;89236;-31
2022/11/14 03:51:17;;;;;;;69.97;50.47;;;7.00;99.90;;;;;;4901745;28;88942;-30
2022/11/14 03:53:42;;;;;;;73.65;52.53;;;7.00;99.90;;;;;;4901545;28;90182;-34
2022/11/14 03:56:08;;;;;;;72.22;52.50;;;7.00;99.90;;;;;;4901385;28;90719;-32
2022/11/14 03:58:33;;;;;;;75.38;51.75;;;7.00;99.90;;;;;;4901056;28;90628;-30
2022/11/14 04:00:59;;;;;;;62.78;46.67;;;6.90;99.90;;;;;;4901842;28;90254;-31
2022/11/14 04:03:25;;;;;;;74.43;54.38;;;7.00;99.90;;;;;;4900938;28;90297;-31
2022/11/14 04:05:50;;;;;;;70.00;52.08;;;6.90;99.90;;;;;;4901395;28;89707;-33
2022/11/14 04:08:17;;;;;;;55.22;42.88;;;6.90;99.90;;;;;;4901856;28;90198;-33
2022/11/14 04:10:46;;;;;;;77.68;53.40;;;6.90;99.90;;;;;;4901084;28;88234;-32
2022/11/14 04:13:12;;;;;;;65.88;45.10;;;6.90;99.90;;;;;;4901484;28;90127;-33
2022/11/14 04:15:37;;;;;;;68.28;52.00;;;7.00;99.90;;;;;;4901598;28;89422;-29
2022/11/14 04:18:03;;;;;;;66.97;53.35;;;6.90;99.90;;;;;;4901590;28;88767;-31
2022/11/14 04:20:28;;;;;;;66.68;49.08;;;6.80;99.90;;;;;;4900758;28;90518;-32
2022/11/14 04:22:54;;;;;;;70.10;48.22;;;6.80;99.90;;;;;;4901066;28;90460;-33
2022/11/14 04:25:19;;;;;;;64.30;49.92;;;6.80;99.90;;;;;;4901591;28;89423;-32
2022/11/14 04:27:45;;;;;;;63.42;50.17;;;6.80;99.90;;;;;;4901401;28;90364;-31
2022/11/14 04:30:11;;;;;;;60.67;43.55;;;6.80;99.90;;;;;;4901335;28;89575;-33
2022/11/14 04:32:36;;;;;;;62.45;43.28;;;7.00;99.90;;;;;;4901345;28;90905;-32
2022/11/14 04:35:02;;;;;;;56.40;41.60;;;6.90;99.90;;;;;;4900462;28;90022;-31
2022/11/14 04:37:28;;;;;;;55.05;36.83;;;6.90;99.90;;;;;;4901294;28;89421;-32
2022/11/14 04:39:57;;;;;;;65.53;48.67;;;6.90;99.90;;;;;;4900757;28;88977;-31
2022/11/14 04:42:24;;;;;;;74.40;53.80;;;7.00;99.90;;;;;;4901478;28;90500;-33
2022/11/14 04:44:50;;;;;;;76.25;51.58;;;6.90;99.90;;;;;;4900273;28;91050;-31
2022/11/14 04:47:15;;;;;;;66.68;50.60;;;7.00;99.90;;;;;;4901390;28;90582;-30
2022/11/14 04:49:41;;;;;;;67.85;48.92;;;6.90;99.90;;;;;;4900944;28;88880;-30
2022/11/14 04:52:06;;;;;;;69.70;52.50;;;6.90;99.90;;;;;;4901649;28;90193;-30
2022/11/14 04:54:32;;;;;;;53.90;37.70;;;6.90;99.90;;;;;;4900422;28;90453;-32
2022/11/14 04:56:57;;;;;;;72.63;51.65;;;6.90;99.90;;;;;;4901384;28;89954;-33
2022/11/14 04:59:23;;;;;;;74.93;52.22;;;6.80;99.90;;;;;;4900927;28;89353;-33
2022/11/14 05:01:48;;;;;;;75.72;51.13;;;6.80;99.90;;;;;;4900827;28;90704;-34
2022/11/14 05:04:14;;;;;;;82.43;57.00;;;6.80;99.90;;;;;;4901045;28;89450;-29
2022/11/14 05:06:40;;;;;;;84.85;55.38;;;6.70;99.90;;;;;;4899962;28;90201;-29
2022/11/14 05:09:06;;;;;;;68.25;51.72;;;6.70;99.90;;;;;;4899934;28;90169;-31
2022/11/14 05:11:31;;;;;;;72.43;54.60;;;6.60;99.90;;;;;;4899650;28;90256;-31
2022/11/14 05:13:57;;;;;;;74.32;52.45;;;6.60;99.90;;;;;;4900874;28;88861;-32
2022/11/14 05:16:22;;;;;;;78.63;55.20;;;6.60;99.90;;;;;;4900713;28;89615;-31
2022/11/14 05:18:48;;;;;;;72.60;54.38;;;6.70;99.90;;;;;;4900234;28;89545;-33
2022/11/14 05:21:14;;;;;;;73.82;55.10;;;6.70;99.90;;;;;;4901292;28;90170;-30
2022/11/14 05:23:40;;;;;;;75.53;55.42;;;6.60;99.90;;;;;;4899520;28;89726;-31
2022/11/14 05:26:09;;;;;;;78.57;55.58;;;6.60;99.90;;;;;;4901111;28;88871;-30
2022/11/14 05:28:35;;;;;;;73.97;54.15;;;6.60;99.90;;;;;;4901168;28;89737;-32
2022/11/14 05:31:06;;;;;;;68.05;46.42;;;6.60;99.90;;;;;;4899787;28;89901;-31
2022/11/14 05:33:32;;;;;;;77.00;51.85;;;6.80;99.90;;;;;;4899852;28;89882;-30
2022/11/14 05:36:06;;;;;;;71.57;48.78;;;6.70;99.90;;;;;;4900094;28;90396;-30
2022/11/14 05:38:32;;;;;;;68.85;52.53;;;6.70;99.90;;;;;;4901005;28;89506;-30
2022/11/14 05:40:57;;;;;;;76.28;51.35;;;6.60;99.90;;;;;;4900183;28;90166;-31
2022/11/14 05:43:24;;;;;;;75.45;53.40;;;6.70;99.90;;;;;;4900168;28;89474;-36
2022/11/14 05:45:50;;;;;;;72.70;49.72;;;6.60;99.90;;;;;;4900335;28;89531;-31
2022/11/14 05:48:16;;;;;;;79.22;54.83;;;6.70;99.90;;;;;;4899968;28;88745;-33
2022/11/14 05:50:41;;;;;;;85.40;56.83;;;6.50;99.90;;;;;;4900320;28;90128;-32
2022/11/14 05:53:07;;;;;;;71.18;53.00;;;6.50;99.90;;;;;;4902244;28;90153;-32
2022/11/14 05:55:32;;;;;;;80.68;56.33;;;6.50;99.90;;;;;;4903529;28;89572;-31
2022/11/14 05:57:58;;;;;;;85.97;56.33;;;6.50;99.90;;;;;;4902657;28;90832;-32
2022/11/14 06:00:25;;;;;;;77.97;52.40;;;6.50;99.90;;;;;;4903422;28;90186;-31
2022/11/14 06:02:54;;;;;;;79.63;53.60;;;6.50;99.90;;;;;;4902679;28;89403;-32
2022/11/14 06:05:21;;;;;;;71.97;53.08;;;6.40;99.90;;;;;;4903622;28;89826;-31
2022/11/14 06:07:47;;;;;;;70.22;51.70;;;6.40;99.90;;;;;;4903592;28;89772;-30
2022/11/14 06:10:12;;;;;;;77.07;49.53;;;6.30;99.90;;;;;;4902552;28;90119;-33
2022/11/14 06:12:39;;;;;;;80.78;56.80;;;6.40;99.90;;;;;;4900205;28;89775;-30
2022/11/14 06:15:05;;;;;;;76.53;52.33;;;6.50;99.90;;;;;;4915363;28;89595;-30
2022/11/14 06:17:30;;;;;;;92.15;57.45;;;6.40;99.90;;;;;;4920132;28;89089;-33
2022/11/14 06:19:56;;;;;;;77.63;53.90;;;6.40;99.90;;;;;;4918115;28;90134;-30
2022/11/14 06:22:21;;;;;;;81.90;52.22;;;6.40;99.90;;;;;;4918786;28;90316;-33
2022/11/14 06:24:47;;;;;;;85.50;59.63;;;6.40;99.90;;;;;;4919540;28;90591;-32
2022/11/14 06:27:13;;;;;;;84.38;52.47;;;6.40;99.90;;;;;;4917307;28;89897;-33
2022/11/14 06:29:38;;;;;;;75.05;43.03;;;6.50;99.90;;;;;;4920085;28;90045;-29
2022/11/14 06:32:04;;;;;;;87.53;56.00;;;6.50;99.90;;;;;;4905966;28;90730;-31
2022/11/14 06:34:29;;;;;;;74.35;49.85;;;6.40;99.90;;;;;;4902513;28;88906;-31
2022/11/14 06:36:55;;;;;;;86.15;57.05;;;6.40;99.90;;;;;;4902554;28;89633;-30
2022/11/14 06:39:20;;;;;;;77.55;51.28;;;6.40;99.90;;;;;;4902753;28;90169;-33
2022/11/14 06:41:46;;;;;;;84.47;55.97;;;6.30;99.90;;;;;;4903915;28;89777;-31
2022/11/14 06:44:13;;;;;;;94.38;59.10;;;6.20;99.90;;;;;;4904782;28;89762;-33
2022/11/14 06:46:39;;;;;;;86.82;59.72;;;6.20;99.90;;;;;;4903649;28;90346;-31
2022/11/14 06:49:05;;;;;;;86.05;57.53;;;6.10;99.90;;;;;;4904279;28;90181;-33
2022/11/14 06:51:31;;;;;;;86.75;53.95;;;6.20;99.90;;;;;;4904000;28;90083;-32
2022/11/14 06:53:57;;;;;;;81.00;49.15;;;6.40;99.90;;;;;;4904100;28;89410;-31
2022/11/14 06:56:23;;;;;;;76.22;51.72;;;6.20;99.90;;;;;;4902270;28;89469;-29
2022/11/14 06:58:49;;;;;;;81.53;53.63;;;6.20;99.90;;;;;;4902524;28;90140;-32
2022/11/14 07:01:20;;;;;;;85.25;57.47;;;6.20;99.90;;;;;;4907602;28;89381;-30
2022/11/14 07:03:46;;;;;;;85.30;59.90;;;6.20;99.90;;;;;;4904598;28;89467;-30
2022/11/14 07:06:14;;;;;;;74.07;51.70;;;6.10;99.90;;;;;;4906921;28;89145;-33
2022/11/14 07:08:40;;;;;;;76.40;54.65;;;6.10;99.90;;;;;;4904865;28;90814;-33
2022/11/14 07:11:24;;;;;;;86.57;57.58;;;6.10;99.90;;;;;;4905736;28;90747;-29
2022/11/14 07:13:52;;;;;;;75.03;49.60;;;6.10;99.90;;;;;;4904497;28;88758;-30
2022/11/14 07:16:18;;;;;;;67.78;41.17;;;6.20;99.90;;;;;;4906834;28;89363;-30
2022/11/14 07:18:44;;;;;;;79.55;53.33;;;6.20;99.90;;;;;;4904896;28;90770;-32
2022/11/14 07:21:12;;;;;;;78.78;54.65;;;6.30;99.90;;;;;;4905057;28;89984;-31
2022/11/14 07:23:40;;;;;;;63.43;44.67;;;6.20;99.90;;;;;;4906222;28;88989;-31
2022/11/14 07:26:08;;;;;;;83.95;54.75;;;6.20;99.90;;;;;;4904761;28;90386;-30
2022/11/14 07:28:35;;;;;;;71.35;50.25;;;6.10;99.90;;;;;;4907219;28;90125;-30
2022/11/14 07:31:11;;;;;;;66.28;44.22;;;6.10;99.90;;;;;;4904701;28;89917;-31
2022/11/14 07:33:37;;;;;;;82.13;54.72;;;6.10;99.90;;;;;;4900557;28;89431;-32
2022/11/14 07:36:03;;;;;;;74.80;53.00;;;6.20;99.90;;;;;;4899895;28;89460;-33
2022/11/14 07:38:30;;;;;;;75.90;54.25;;;6.20;99.90;;;;;;4902807;28;89618;-31
2022/11/14 07:41:04;;;;;;;79.78;56.40;;;6.20;99.90;;;;;;4910261;28;89734;-32
2022/11/14 07:43:30;;;;;;;81.07;58.03;;;6.10;99.90;;;;;;4911260;28;89822;-29
2022/11/14 07:46:01;;;;;;;76.22;48.10;;;6.20;99.90;;;;;;4902332;28;90289;-31
2022/11/14 07:48:27;;;;;;;85.97;55.10;;;6.30;99.90;;;;;;4908132;28;90226;-32
2022/11/14 07:50:56;;;;;;;77.05;53.58;;;6.20;99.90;;;;;;4910964;28;90021;-33
2022/11/14 07:53:23;;;;;;;78.60;52.70;;;6.10;99.90;;;;;;4908248;28;90121;-31
2022/11/14 07:55:48;;;;;;;82.05;57.63;;;6.30;99.90;;;;;;4913315;28;88877;-31
2022/11/14 07:58:14;;;;;;;75.47;52.05;;;6.30;99.90;;;;;;4907874;28;89923;-31
2022/11/14 08:00:39;;;;;;;86.03;56.35;;;6.30;99.90;;;;;;4911310;28;90391;-32
2022/11/14 08:03:07;;;;;;;73.35;45.78;;;6.20;99.90;;;;;;4909436;28;90347;-32
2022/11/14 08:05:32;;;;;;;70.22;49.08;;;6.40;99.90;;;;;;4909914;28;89140;-31
2022/11/14 08:07:58;;;;;;;77.13;50.30;;;6.40;99.90;;;;;;4908605;28;90220;-31
2022/11/14 08:10:23;;;;;;;74.18;46.47;;;6.40;99.90;;;;;;4898718;28;89596;-34
2022/11/14 08:12:58;;;;;;;62.72;37.78;;;6.50;99.90;;;;;;4899787;28;89640;-31
2022/11/14 08:15:23;;;;;;;63.92;42.85;;;6.50;99.90;;;;;;4898909;28;89382;-34
2022/11/14 08:17:49;;;;;;;86.35;53.50;;;6.40;99.90;;;;;;4899573;28;91266;-30
2022/11/14 08:20:14;;;;;;;78.75;54.40;;;6.30;99.90;;;;;;4899798;28;89513;-30
2022/11/14 08:22:40;;;;;;;77.50;52.75;;;6.20;99.90;;;;;;4899283;28;89181;-34
2022/11/14 08:25:06;;;;;;;56.15;31.90;;;6.20;99.90;;;;;;4898933;28;89904;-32
2022/11/14 08:27:32;;;;;;;75.68;49.53;;;6.40;99.90;;;;;;4898713;28;90656;-32
2022/11/14 08:29:57;;;;;;;81.65;54.47;;;6.40;99.90;;;;;;4899428;28;89910;-30
2022/11/14 08:32:23;;;;;;;75.43;44.67;;;6.40;99.90;;;;;;4898852;28;89530;-31
2022/11/14 08:34:48;;;;;;;84.15;55.92;;;6.40;99.90;;;;;;4899539;28;89467;-31
2022/11/14 08:37:14;;;;;;;80.05;51.65;;;6.50;99.90;;;;;;4898408;28;90115;-33
2022/11/14 08:39:40;;;;;;;77.63;53.40;;;6.50;99.90;;;;;;4898789;28;89994;-32
2022/11/14 08:42:05;;;;;;;66.20;43.45;;;6.50;99.90;;;;;;4899563;28;90114;-30
2022/11/14 08:44:31;;;;;;;65.15;43.92;;;6.50;99.90;;;;;;4898350;28;89128;-31
2022/11/14 08:46:59;;;;;;;76.72;50.67;;;6.50;99.90;;;;;;4898816;28;90020;-31
2022/11/14 08:49:25;;;;;;;67.22;46.35;;;6.50;99.90;;;;;;4897769;28;90958;-31
2022/11/14 08:51:51;;;;;;;85.60;54.55;;;6.60;99.90;;;;;;4898613;28;90937;-31
2022/11/14 08:54:17;;;;;;;78.05;50.95;;;6.60;99.90;;;;;;4899380;28;89416;-30
2022/11/14 08:56:43;;;;;;;78.70;51.53;;;6.60;99.90;;;;;;4898640;28;90509;-31
2022/11/14 08:59:09;;;;;;;73.75;52.03;;;6.70;99.90;;;;;;4898499;28;89640;-31
2022/11/14 09:01:34;;;;;;;64.38;47.40;;;6.60;99.90;;;;;;4898598;28;90424;-30
2022/11/14 09:04:00;;;;;;;70.72;50.10;;;6.70;99.90;;;;;;4898472;28;89658;-30
2022/11/14 09:06:26;;;;;;;81.07;51.20;;;6.80;99.90;;;;;;4898698;28;89801;-32
2022/11/14 09:08:51;;;;;;;62.50;47.72;;;6.80;99.90;;;;;;4898281;28;89208;-31
2022/11/14 09:11:18;;;;;;;75.68;52.72;;;6.80;99.90;;;;;;4927811;23;89154;-31
2022/11/14 09:13:44;;;;;;;64.75;44.63;;;6.80;99.90;;;;;;4897787;28;89890;-31
2022/11/14 09:16:09;;;;;;;75.97;50.45;;;6.90;99.90;;;;;;4897768;28;90105;-31
2022/11/14 09:18:35;;;;;;;68.47;47.53;;;6.90;99.90;;;;;;4898215;28;89470;-32
2022/11/14 09:21:06;;;;;;;66.20;48.58;;;7.00;99.90;;;;;;4897773;28;89570;-31
2022/11/14 09:23:32;;;;;;;72.97;50.40;;;6.90;99.90;;;;;;4897657;28;88369;-31
2022/11/14 09:25:57;;;;;;;68.63;50.05;;;7.10;99.90;;;;;;4870964;28;90162;-30
2022/11/14 09:28:23;;;;;;;63.33;48.05;;;7.10;99.90;;;;;;4907284;28;90081;-31
2022/11/14 09:30:49;;;;;;;57.70;37.17;;;7.00;99.90;;;;;;4898232;28;90080;-33
2022/11/14 09:33:15;;;;;;;63.28;43.92;;;6.90;99.90;;;;;;4898614;28;89433;-29
2022/11/14 09:35:40;;;;;;;56.45;39.70;;;7.00;99.90;;;;;;4897117;28;90800;-30
2022/11/14 09:38:08;;;;;;;55.22;42.60;;;6.90;99.90;;;;;;4897572;28;91368;-33
2022/11/14 09:40:46;;;;;;;57.57;41.30;;;6.90;99.90;;;;;;4897872;28;90486;-31
2022/11/14 09:43:44;;;;;;;59.75;42.55;;;7.10;99.90;;;;;;4898856;28;89384;-29
2022/11/14 09:46:19;;;;;;;48.83;34.42;;;7.00;99.90;;;;;;4898453;28;90382;-31
2022/11/14 09:48:45;;;;;;;65.70;48.00;;;6.90;99.90;;;;;;4898217;28;89823;-32
2022/11/14 09:51:23;;;;;;;59.38;45.08;;;6.90;99.90;;;;;;4898126;28;89716;-29
2022/11/14 09:53:49;;;;;;;59.05;40.53;;;7.00;99.90;;;;;;4898941;28;89552;-33
2022/11/14 09:56:25;;;;;;;62.58;45.35;;;6.90;99.90;;;;;;4898038;28;90070;-30
2022/11/14 09:58:52;;;;;;;69.55;43.88;;;7.00;99.90;;;;;;4897775;28;89169;-33
2022/11/14 10:01:35;;;;;;;49.15;39.28;;;6.90;99.90;;;;;;4898152;28;89931;-31
2022/11/14 10:04:12;;;;;;;51.20;38.15;;;7.00;99.90;;;;;;4897505;28;89987;-31
2022/11/14 10:06:52;;;;;;;55.83;44.10;;;7.20;99.90;;;;;;4898693;28;90197;-31
2022/11/14 10:09:36;;;;;;;58.33;43.65;;;7.20;99.90;;;;;;4897302;28;89623;-31
2022/11/14 10:12:04;;;;;;;48.40;36.38;;;7.20;99.90;;;;;;4885026;28;89551;-31
2022/11/14 10:14:39;;;;;;;53.88;38.85;;;7.20;99.90;;;;;;4897057;28;89492;-32
2022/11/14 10:17:17;;;;;;;50.90;35.47;;;7.30;99.90;;;;;;4890775;28;90615;-31
2022/11/14 10:20:07;;;;;;;64.32;43.85;;;7.30;99.90;;;;;;4897366;28;90281;-30
2022/11/14 10:22:52;;;;;;;57.58;44.75;;;7.20;99.90;;;;;;4892928;28;89929;-33
2022/11/14 10:25:25;;;;;;;46.35;35.88;;;7.20;99.90;;;;;;4898001;28;89734;-31
2022/11/14 10:28:01;;;;;;;58.17;44.05;;;7.20;99.90;;;;;;4897132;28;90359;-32
2022/11/14 10:30:57;;;;;;;63.58;45.38;;;7.20;99.90;;;;;;4897371;28;90386;-33
2022/11/14 10:33:34;;;;;;;64.63;46.13;;;7.30;99.90;;;;;;4897946;28;90396;-35
2022/11/14 10:36:13;;;;;;;60.28;46.47;;;7.40;99.90;;;;;;4897497;28;88730;-32
2022/11/14 10:38:49;;;;;;;53.67;39.17;;;7.50;99.90;;;;;;4898883;28;91353;-32
2022/11/14 10:41:15;;;;;;;57.03;43.47;;;7.50;99.90;;;;;;4900749;28;89655;-31
2022/11/14 10:43:46;;;;;;;51.30;37.13;;;7.60;99.90;;;;;;4901080;28;89499;-32
2022/11/14 10:46:20;;;;;;;63.65;44.70;;;7.60;99.90;;;;;;4900237;28;89398;-33
2022/11/14 10:48:49;;;;;;;51.08;37.17;;;7.60;99.90;;;;;;4900311;28;90069;-33
2022/11/14 10:51:32;;;;;;;59.47;44.28;;;7.70;99.90;;;;;;4900276;28;90028;-31
2022/11/14 10:54:09;;;;;;;59.13;44.05;;;7.70;99.90;;;;;;4901079;28;89781;-31
2022/11/14 10:56:46;;;;;;;58.35;43.58;;;7.60;99.90;;;;;;4899888;28;90522;-32
2022/11/14 10:59:12;;;;;;;63.03;42.83;;;7.60;99.90;;;;;;4900541;28;90633;-32
2022/11/14 11:01:45;;;;;;;62.38;43.50;;;7.70;99.90;;;;;;4900305;28;89276;-32
2022/11/14 11:04:10;;;;;;;55.45;38.97;;;7.70;99.90;;;;;;4900839;28;89718;-32
2022/11/14 11:06:36;;;;;;;62.22;42.67;;;7.90;99.90;;;;;;4901024;28;89273;-32
2022/11/14 11:11:56;;;;;;;58.53;43.75;;;8.00;99.90;;;;;;4900340;28;89744;-30
2022/11/14 11:14:22;;;;;;;54.92;37.78;;;7.90;99.90;;;;;;4900490;28;89362;-31
2022/11/14 11:16:48;;;;;;;54.13;41.00;;;8.00;99.90;;;;;;4900303;28;89242;-31
2022/11/14 11:19:23;;;;;;;64.70;47.70;;;8.10;99.90;;;;;;4899406;28;89285;-32
2022/11/14 11:21:51;;;;;;;55.90;44.15;;;8.20;99.90;;;;;;4900053;28;90944;-32
2022/11/14 11:24:36;;;;;;;57.53;43.47;;;8.20;99.90;;;;;;4900000;28;90515;-31
2022/11/14 11:27:14;;;;;;;56.95;40.38;;;8.30;99.90;;;;;;4900567;28;90285;-31
2022/11/14 11:29:40;;;;;;;58.10;39.42;;;8.30;99.90;;;;;;4900914;28;90259;-32
2022/11/14 11:32:07;;;;;;;55.63;40.58;;;8.40;99.90;;;;;;4899114;28;90233;-33
2022/11/14 11:34:33;;;;;;;50.83;37.42;;;8.40;99.90;;;;;;4899654;28;89247;-33
2022/11/14 11:37:07;;;;;;;54.00;39.45;;;8.40;99.90;;;;;;4900792;28;87856;-32
2022/11/14 11:39:41;;;;;;;51.08;37.05;;;8.50;99.90;;;;;;4899669;28;90392;-33
2022/11/14 11:42:13;;;;;;;52.03;36.10;;;8.60;99.90;;;;;;4900067;28;90383;-31
2022/11/14 11:44:44;;;;;;;49.50;35.92;;;8.50;99.90;;;;;;4900049;28;89742;-32
2022/11/14 11:47:17;;;;;;;52.28;40.70;;;8.60;99.90;;;;;;4899028;28;88911;-31
2022/11/14 11:49:51;;;;;;;49.08;37.80;;;8.70;99.90;;;;;;4898790;28;91116;-33
2022/11/14 11:52:44;;;;;;;49.13;37.05;;;8.70;99.90;;;;;;4900433;28;89956;-32
2022/11/14 11:55:14;;;;;;;47.92;37.67;;;8.70;99.90;;;;;;4888618;28;89726;-31
2022/11/14 11:58:05;;;;;;;47.67;35.30;;;8.80;99.90;;;;;;4899915;28;88391;-32
2022/11/14 12:00:31;;;;;;;45.42;36.58;;;8.90;99.90;;;;;;4897079;28;89935;-31
2022/11/14 12:02:57;;;;;;;44.08;35.55;;;8.90;99.90;;;;;;4899274;28;89344;-32
2022/11/14 12:05:47;;;;;;;48.03;35.50;;;9.00;99.90;;;;;;4899969;28;89385;-31
2022/11/14 12:08:27;;;;;;;41.88;34.00;;;9.10;99.90;;;;;;4899154;28;88570;-32
2022/11/14 12:10:54;;;;;;;43.80;35.70;;;9.10;99.90;;;;;;4898309;28;89617;-34
2022/11/14 12:13:54;;;;;;;49.70;36.00;;;9.20;99.90;;;;;;4899072;28;90702;-32
2022/11/14 12:16:47;;;;;;;45.25;34.80;;;9.20;99.90;;;;;;4899491;28;90502;-32
2022/11/14 12:19:51;;;;;;;47.33;36.83;;;9.30;99.90;;;;;;4900064;28;89915;-33
2022/11/14 12:22:34;;;;;;;49.13;33.90;;;9.30;99.90;;;;;;4899514;28;90158;-33
2022/11/14 12:25:17;;;;;;;42.17;33.45;;;9.40;99.90;;;;;;4900038;28;88268;-32
2022/11/14 12:28:21;;;;;;;39.28;31.13;;;9.40;99.90;;;;;;4898772;28;90002;-31
2022/11/14 12:30:52;;;;;;;48.40;34.35;;;9.40;99.90;;;;;;4899679;28;89345;-31
2022/11/14 12:33:28;;;;;;;42.97;36.88;;;9.50;99.90;;;;;;4899383;28;89766;-34
2022/11/14 12:35:57;;;;;;;46.38;33.88;;;9.50;99.90;;;;;;4898873;28;90375;-33
2022/11/14 12:38:23;;;;;;;42.13;34.17;;;9.50;99.90;;;;;;4899283;28;88917;-32
2022/11/14 12:40:54;;;;;;;42.83;33.17;;;9.40;99.90;;;;;;4899195;28;90448;-32
2022/11/14 12:43:38;;;;;;;43.22;33.47;;;9.50;99.90;;;;;;4899368;28;90213;-33
2022/11/14 12:46:08;;;;;;;41.95;32.45;;;9.50;99.90;;;;;;4899050;28;88716;-32